Butter Tubs Pass, United Kingdom
Current Conditions -  °F | °C
As of 1:50 PM on Sunday 23 Nov 2014 (Local Time) from EGXE Reporting Station
Broken Clouds Broken Clouds  
Wind Chill: 46°   Ceiling: 17000
Heat Index: 48°   Visibility: 6mi
Dew Point: 41°   Wind: 5mph
Humidity: 76%   Direction: 300°WNW
Pressure: 30"   Gusts: NA
Location:  54.37°N, 2.2°W
Report Text: EGXE 231350Z AUTO 30004KT 9999 BKN170/// 09/05 Q1016
Loading
Personal Weather Stations






























Interactive Weather Map New forecast layout! Learn more

10-Day Weather Forecast

Advertisements
Track Severe Weather on mobile